sensor_id;sensor_type;location;lat;lon;timestamp;pressure;altitude;pressure_sealevel;temperature;humidity
7668;BME280;3876;42.204;24.686;2023-08-30T00:02:10;98253.53;;;24.45;91.98
7668;BME280;3876;42.204;24.686;2023-08-30T00:04:37;98258.09;;;24.43;91.82
7668;BME280;3876;42.204;24.686;2023-08-30T00:07:05;98254.00;;;24.40;91.74
7668;BME280;3876;42.204;24.686;2023-08-30T00:09:31;98261.88;;;24.40;91.40
7668;BME280;3876;42.204;24.686;2023-08-30T00:11:58;98264.31;;;24.34;92.28
7668;BME280;3876;42.204;24.686;2023-08-30T00:14:25;98262.97;;;24.30;91.48
7668;BME280;3876;42.204;24.686;2023-08-30T00:16:52;98258.38;;;24.24;92.12
7668;BME280;3876;42.204;24.686;2023-08-30T00:19:19;98246.28;;;24.23;92.59
7668;BME280;3876;42.204;24.686;2023-08-30T00:21:46;98254.28;;;24.21;92.17
7668;BME280;3876;42.204;24.686;2023-08-30T00:24:14;98251.69;;;24.21;92.13
7668;BME280;3876;42.204;24.686;2023-08-30T00:26:41;98248.25;;;24.21;91.85
7668;BME280;3876;42.204;24.686;2023-08-30T00:29:07;98254.06;;;24.07;92.57
7668;BME280;3876;42.204;24.686;2023-08-30T00:31:34;98248.41;;;23.85;93.93
7668;BME280;3876;42.204;24.686;2023-08-30T00:34:01;98247.72;;;23.75;94.11
7668;BME280;3876;42.204;24.686;2023-08-30T00:36:27;98245.66;;;23.53;95.74
7668;BME280;3876;42.204;24.686;2023-08-30T00:38:54;98252.34;;;23.30;96.86
7668;BME280;3876;42.204;24.686;2023-08-30T00:41:22;98254.84;;;23.14;97.39
7668;BME280;3876;42.204;24.686;2023-08-30T00:43:49;98262.25;;;23.00;98.79
7668;BME280;3876;42.204;24.686;2023-08-30T00:46:16;98257.94;;;22.91;99.28
7668;BME280;3876;42.204;24.686;2023-08-30T00:48:43;98269.00;;;22.85;99.65
7668;BME280;3876;42.204;24.686;2023-08-30T00:51:10;98258.34;;;22.79;99.77
7668;BME280;3876;42.204;24.686;2023-08-30T00:53:37;98258.81;;;22.74;99.68
7668;BME280;3876;42.204;24.686;2023-08-30T00:56:04;98260.81;;;22.80;99.36
7668;BME280;3876;42.204;24.686;2023-08-30T00:58:32;98262.44;;;22.81;99.59
7668;BME280;3876;42.204;24.686;2023-08-30T01:00:59;98267.09;;;22.87;99.27
7668;BME280;3876;42.204;24.686;2023-08-30T01:03:26;98270.06;;;22.92;98.36
7668;BME280;3876;42.204;24.686;2023-08-30T01:05:53;98269.75;;;22.95;97.28
7668;BME280;3876;42.204;24.686;2023-08-30T01:08:20;98276.31;;;22.99;97.26
7668;BME280;3876;42.204;24.686;2023-08-30T01:10:56;98276.53;;;23.06;97.02
7668;BME280;3876;42.204;24.686;2023-08-30T01:13:27;98281.00;;;23.14;96.28
7668;BME280;3876;42.204;24.686;2023-08-30T01:15:57;98281.69;;;23.16;95.92
7668;BME280;3876;42.204;24.686;2023-08-30T01:18:26;98282.19;;;23.19;95.43
7668;BME280;3876;42.204;24.686;2023-08-30T01:20:55;98284.50;;;23.22;94.53
7668;BME280;3876;42.204;24.686;2023-08-30T01:23:32;98286.00;;;23.25;93.97
7668;BME280;3876;42.204;24.686;2023-08-30T01:26:08;98287.78;;;23.24;93.60
7668;BME280;3876;42.204;24.686;2023-08-30T01:28:37;98296.44;;;23.25;93.82
7668;BME280;3876;42.204;24.686;2023-08-30T01:31:06;98297.06;;;23.19;93.65
7668;BME280;3876;42.204;24.686;2023-08-30T01:33:34;98294.38;;;23.11;94.04
7668;BME280;3876;42.204;24.686;2023-08-30T01:36:03;98293.72;;;23.09;93.77
7668;BME280;3876;42.204;24.686;2023-08-30T01:38:31;98297.47;;;23.06;94.38
7668;BME280;3876;42.204;24.686;2023-08-30T01:40:59;98294.97;;;23.05;94.87
7668;BME280;3876;42.204;24.686;2023-08-30T01:43:27;98288.72;;;22.97;94.36
7668;BME280;3876;42.204;24.686;2023-08-30T01:45:57;98301.94;;;22.96;94.44
7668;BME280;3876;42.204;24.686;2023-08-30T01:48:26;98305.00;;;22.91;94.38
7668;BME280;3876;42.204;24.686;2023-08-30T01:50:55;98307.47;;;22.93;95.19
7668;BME280;3876;42.204;24.686;2023-08-30T01:53:25;98292.22;;;22.88;94.99
7668;BME280;3876;42.204;24.686;2023-08-30T01:55:52;98311.34;;;22.89;94.88
7668;BME280;3876;42.204;24.686;2023-08-30T01:58:19;98310.53;;;22.88;95.47
7668;BME280;3876;42.204;24.686;2023-08-30T02:00:46;98308.06;;;22.87;95.44
7668;BME280;3876;42.204;24.686;2023-08-30T02:03:14;98301.34;;;22.84;95.39
7668;BME280;3876;42.204;24.686;2023-08-30T02:05:52;98296.09;;;22.84;95.55
7668;BME280;3876;42.204;24.686;2023-08-30T02:08:26;98282.31;;;22.74;95.31
7668;BME280;3876;42.204;24.686;2023-08-30T02:11:01;98294.78;;;22.80;95.37
7668;BME280;3876;42.204;24.686;2023-08-30T02:13:32;98290.53;;;22.79;95.89
7668;BME280;3876;42.204;24.686;2023-08-30T02:16:00;98281.72;;;22.80;95.75
7668;BME280;3876;42.204;24.686;2023-08-30T02:18:29;98294.78;;;22.80;95.68
7668;BME280;3876;42.204;24.686;2023-08-30T02:20:55;98291.34;;;22.80;95.81
7668;BME280;3876;42.204;24.686;2023-08-30T02:23:23;98294.09;;;22.78;96.34
7668;BME280;3876;42.204;24.686;2023-08-30T02:25:50;98289.16;;;22.75;96.22
7668;BME280;3876;42.204;24.686;2023-08-30T02:28:17;98287.56;;;22.74;95.79
7668;BME280;3876;42.204;24.686;2023-08-30T02:30:43;98284.94;;;22.74;95.92
7668;BME280;3876;42.204;24.686;2023-08-30T02:33:10;98275.22;;;22.67;96.26
7668;BME280;3876;42.204;24.686;2023-08-30T02:35:38;98279.63;;;22.66;96.21
7668;BME280;3876;42.204;24.686;2023-08-30T02:38:05;98286.50;;;22.67;96.05
7668;BME280;3876;42.204;24.686;2023-08-30T02:40:32;98285.13;;;22.63;96.54
7668;BME280;3876;42.204;24.686;2023-08-30T02:42:59;98293.25;;;22.60;96.59
7668;BME280;3876;42.204;24.686;2023-08-30T02:45:26;98280.31;;;22.59;96.84
7668;BME280;3876;42.204;24.686;2023-08-30T02:47:55;98282.28;;;22.57;96.79
7668;BME280;3876;42.204;24.686;2023-08-30T02:50:21;98287.78;;;22.54;97.23
7668;BME280;3876;42.204;24.686;2023-08-30T02:52:50;98286.84;;;22.55;97.16
7668;BME280;3876;42.204;24.686;2023-08-30T02:55:16;98286.00;;;22.54;96.92
7668;BME280;3876;42.204;24.686;2023-08-30T02:57:43;98294.69;;;22.55;97.58
7668;BME280;3876;42.204;24.686;2023-08-30T03:00:12;98293.16;;;22.52;97.16
7668;BME280;3876;42.204;24.686;2023-08-30T03:02:39;98301.75;;;22.17;99.83
7668;BME280;3876;42.204;24.686;2023-08-30T03:05:06;98304.38;;;21.90;100.00
7668;BME280;3876;42.204;24.686;2023-08-30T03:07:33;98308.66;;;21.72;100.00
7668;BME280;3876;42.204;24.686;2023-08-30T03:10:01;98304.84;;;21.66;100.00
7668;BME280;3876;42.204;24.686;2023-08-30T03:12:29;98299.63;;;21.66;100.00
7668;BME280;3876;42.204;24.686;2023-08-30T03:14:56;98303.47;;;21.62;100.00
7668;BME280;3876;42.204;24.686;2023-08-30T03:17:22;98307.72;;;21.63;100.00
7668;BME280;3876;42.204;24.686;2023-08-30T03:19:51;98312.31;;;21.52;100.00
7668;BME280;3876;42.204;24.686;2023-08-30T03:22:18;98319.72;;;21.46;100.00
7668;BME280;3876;42.204;24.686;2023-08-30T03:24:45;98314.94;;;21.42;100.00
7668;BME280;3876;42.204;24.686;2023-08-30T03:27:13;98314.78;;;21.34;100.00
7668;BME280;3876;42.204;24.686;2023-08-30T03:29:40;98317.53;;;21.23;100.00
7668;BME280;3876;42.204;24.686;2023-08-30T03:32:06;98313.16;;;21.14;100.00
7668;BME280;3876;42.204;24.686;2023-08-30T03:34:33;98330.19;;;21.18;100.00
7668;BME280;3876;42.204;24.686;2023-08-30T03:37:00;98326.63;;;21.19;100.00
7668;BME280;3876;42.204;24.686;2023-08-30T03:39:27;98330.44;;;21.24;100.00
7668;BME280;3876;42.204;24.686;2023-08-30T03:41:53;98333.44;;;21.29;100.00
7668;BME280;3876;42.204;24.686;2023-08-30T03:44:22;98330.44;;;21.34;100.00
7668;BME280;3876;42.204;24.686;2023-08-30T03:46:49;98331.81;;;21.38;100.00
7668;BME280;3876;42.204;24.686;2023-08-30T03:49:16;98321.66;;;21.44;100.00
7668;BME280;3876;42.204;24.686;2023-08-30T03:51:43;98327.41;;;21.48;100.00
7668;BME280;3876;42.204;24.686;2023-08-30T03:54:09;98320.50;;;21.57;100.00
7668;BME280;3876;42.204;24.686;2023-08-30T03:56:41;98336.41;;;21.63;100.00
7668;BME280;3876;42.204;24.686;2023-08-30T03:59:08;98340.41;;;21.67;100.00
7668;BME280;3876;42.204;24.686;2023-08-30T04:01:37;98354.78;;;21.71;100.00
7668;BME280;3876;42.204;24.686;2023-08-30T04:04:04;98350.81;;;21.77;100.00
7668;BME280;3876;42.204;24.686;2023-08-30T04:06:31;98351.63;;;21.77;100.00
7668;BME280;3876;42.204;24.686;2023-08-30T04:08:58;98359.84;;;21.82;100.00
7668;BME280;3876;42.204;24.686;2023-08-30T04:11:25;98360.22;;;21.87;100.00
7668;BME280;3876;42.204;24.686;2023-08-30T04:13:51;98360.00;;;21.90;100.00
7668;BME280;3876;42.204;24.686;2023-08-30T04:16:18;98363.00;;;21.95;100.00
7668;BME280;3876;42.204;24.686;2023-08-30T04:18:46;98352.25;;;21.98;100.00
7668;BME280;3876;42.204;24.686;2023-08-30T04:21:13;98345.94;;;22.01;100.00
7668;BME280;3876;42.204;24.686;2023-08-30T04:23:40;98348.13;;;22.06;100.00
7668;BME280;3876;42.204;24.686;2023-08-30T04:26:07;98342.31;;;22.12;100.00
7668;BME280;3876;42.204;24.686;2023-08-30T04:28:33;98338.47;;;22.16;100.00
7668;BME280;3876;42.204;24.686;2023-08-30T04:31:00;98338.31;;;22.17;100.00
7668;BME280;3876;42.204;24.686;2023-08-30T04:33:27;98343.69;;;22.16;100.00
7668;BME280;3876;42.204;24.686;2023-08-30T04:35:55;98348.88;;;22.25;100.00
7668;BME280;3876;42.204;24.686;2023-08-30T04:38:22;98352.97;;;22.28;100.00
7668;BME280;3876;42.204;24.686;2023-08-30T04:40:49;98356.81;;;22.24;100.00
7668;BME280;3876;42.204;24.686;2023-08-30T04:43:15;98359.84;;;22.29;100.00
7668;BME280;3876;42.204;24.686;2023-08-30T04:45:42;98354.88;;;22.35;100.00
7668;BME280;3876;42.204;24.686;2023-08-30T04:48:09;98357.59;;;22.34;100.00
7668;BME280;3876;42.204;24.686;2023-08-30T04:50:35;98345.38;;;22.34;100.00
7668;BME280;3876;42.204;24.686;2023-08-30T04:53:04;98364.44;;;22.44;100.00
7668;BME280;3876;42.204;24.686;2023-08-30T04:55:31;98362.72;;;22.53;100.00
7668;BME280;3876;42.204;24.686;2023-08-30T04:57:58;98368.59;;;22.65;100.00
7668;BME280;3876;42.204;24.686;2023-08-30T05:00:25;98368.69;;;22.73;100.00
7668;BME280;3876;42.204;24.686;2023-08-30T05:02:51;98361.66;;;22.73;99.15
7668;BME280;3876;42.204;24.686;2023-08-30T05:05:18;98364.41;;;22.72;99.75
7668;BME280;3876;42.204;24.686;2023-08-30T05:07:45;98322.72;;;22.52;99.55
7668;BME280;3876;42.204;24.686;2023-08-30T05:10:13;98363.03;;;22.95;98.75
7668;BME280;3876;42.204;24.686;2023-08-30T05:12:41;98368.25;;;23.13;99.61
7668;BME280;3876;42.204;24.686;2023-08-30T05:15:13;98366.97;;;23.34;96.82
7668;BME280;3876;42.204;24.686;2023-08-30T05:17:40;98366.97;;;23.52;97.47
7668;BME280;3876;42.204;24.686;2023-08-30T05:20:07;98368.72;;;23.69;95.82
7668;BME280;3876;42.204;24.686;2023-08-30T05:22:34;98368.00;;;23.85;94.27
7668;BME280;3876;42.204;24.686;2023-08-30T05:25:01;98373.84;;;24.04;93.60
7668;BME280;3876;42.204;24.686;2023-08-30T05:27:29;98373.94;;;24.21;92.57
7668;BME280;3876;42.204;24.686;2023-08-30T05:29:56;98379.56;;;24.34;90.88
7668;BME280;3876;42.204;24.686;2023-08-30T05:32:23;98369.16;;;24.50;90.44
7668;BME280;3876;42.204;24.686;2023-08-30T05:34:50;98362.00;;;24.68;88.95
7668;BME280;3876;42.204;24.686;2023-08-30T05:37:16;98375.84;;;24.86;88.82
7668;BME280;3876;42.204;24.686;2023-08-30T05:39:43;98376.50;;;24.96;88.38
7668;BME280;3876;42.204;24.686;2023-08-30T05:42:10;98375.38;;;24.99;87.72
7668;BME280;3876;42.204;24.686;2023-08-30T05:44:38;98375.53;;;25.05;87.73
7668;BME280;3876;42.204;24.686;2023-08-30T05:47:05;98379.47;;;25.18;87.41
7668;BME280;3876;42.204;24.686;2023-08-30T05:49:31;98376.22;;;25.32;87.22
7668;BME280;3876;42.204;24.686;2023-08-30T05:51:58;98382.81;;;25.52;85.43
7668;BME280;3876;42.204;24.686;2023-08-30T05:54:25;98387.72;;;25.71;84.86
7668;BME280;3876;42.204;24.686;2023-08-30T05:56:55;98390.94;;;25.89;83.22
7668;BME280;3876;42.204;24.686;2023-08-30T05:59:21;98403.06;;;26.06;83.52
7668;BME280;3876;42.204;24.686;2023-08-30T06:01:49;98412.41;;;26.09;81.25
7668;BME280;3876;42.204;24.686;2023-08-30T06:04:16;98404.03;;;26.22;82.25
7668;BME280;3876;42.204;24.686;2023-08-30T06:06:43;98402.50;;;26.35;82.38
7668;BME280;3876;42.204;24.686;2023-08-30T06:09:10;98401.75;;;26.02;81.90
7668;BME280;3876;42.204;24.686;2023-08-30T06:11:37;98401.81;;;25.70;83.20
7668;BME280;3876;42.204;24.686;2023-08-30T06:14:04;98398.56;;;25.52;83.32
7668;BME280;3876;42.204;24.686;2023-08-30T06:16:31;98405.09;;;25.56;84.10
7668;BME280;3876;42.204;24.686;2023-08-30T06:18:59;98404.75;;;25.59;84.91
7668;BME280;3876;42.204;24.686;2023-08-30T06:21:26;98411.16;;;25.73;85.90
7668;BME280;3876;42.204;24.686;2023-08-30T06:23:53;98411.97;;;25.89;84.78
7668;BME280;3876;42.204;24.686;2023-08-30T06:26:20;98407.00;;;26.02;82.74
7668;BME280;3876;42.204;24.686;2023-08-30T06:28:47;98408.94;;;26.25;82.05
7668;BME280;3876;42.204;24.686;2023-08-30T06:31:14;98412.81;;;26.45;79.13
7668;BME280;3876;42.204;24.686;2023-08-30T06:33:40;98413.88;;;26.67;79.53
7668;BME280;3876;42.204;24.686;2023-08-30T06:36:09;98417.94;;;26.77;78.59
7668;BME280;3876;42.204;24.686;2023-08-30T06:38:36;98418.69;;;26.94;78.29
7668;BME280;3876;42.204;24.686;2023-08-30T06:41:05;98422.09;;;27.02;76.59
7668;BME280;3876;42.204;24.686;2023-08-30T06:43:32;98433.38;;;27.11;75.81
7668;BME280;3876;42.204;24.686;2023-08-30T06:45:58;98426.19;;;27.28;76.22
7668;BME280;3876;42.204;24.686;2023-08-30T06:48:26;98425.75;;;27.47;75.97
7668;BME280;3876;42.204;24.686;2023-08-30T06:50:57;98425.25;;;27.66;72.78
7668;BME280;3876;42.204;24.686;2023-08-30T06:53:25;98428.50;;;27.91;72.47
7668;BME280;3876;42.204;24.686;2023-08-30T06:55:57;98436.78;;;28.02;72.09
7668;BME280;3876;42.204;24.686;2023-08-30T06:58:23;98431.38;;;28.19;71.99
7668;BME280;3876;42.204;24.686;2023-08-30T07:00:50;98434.47;;;28.37;72.50
7668;BME280;3876;42.204;24.686;2023-08-30T07:03:18;98437.56;;;28.55;70.43
7668;BME280;3876;42.204;24.686;2023-08-30T07:05:45;98431.53;;;28.61;70.00
7668;BME280;3876;42.204;24.686;2023-08-30T07:08:17;98439.28;;;28.77;68.87
7668;BME280;3876;42.204;24.686;2023-08-30T07:10:46;98434.78;;;28.92;67.50
7668;BME280;3876;42.204;24.686;2023-08-30T07:13:13;98434.31;;;29.03;67.43
7668;BME280;3876;42.204;24.686;2023-08-30T07:15:41;98437.97;;;29.24;66.75
7668;BME280;3876;42.204;24.686;2023-08-30T07:18:08;98436.66;;;29.34;67.00
7668;BME280;3876;42.204;24.686;2023-08-30T07:20:35;98428.31;;;29.52;65.38
7668;BME280;3876;42.204;24.686;2023-08-30T07:23:04;98435.84;;;29.55;68.22
7668;BME280;3876;42.204;24.686;2023-08-30T07:25:31;98437.13;;;29.59;67.23
7668;BME280;3876;42.204;24.686;2023-08-30T07:28:01;98439.13;;;29.57;64.99
7668;BME280;3876;42.204;24.686;2023-08-30T07:30:27;98439.22;;;29.70;64.70
7668;BME280;3876;42.204;24.686;2023-08-30T07:32:58;98437.28;;;29.79;66.89
7668;BME280;3876;42.204;24.686;2023-08-30T07:35:25;98434.44;;;29.80;65.85
7668;BME280;3876;42.204;24.686;2023-08-30T07:37:51;98434.78;;;29.70;63.19
7668;BME280;3876;42.204;24.686;2023-08-30T07:40:18;98428.16;;;29.60;62.95
7668;BME280;3876;42.204;24.686;2023-08-30T07:42:46;98442.31;;;29.74;63.45
7668;BME280;3876;42.204;24.686;2023-08-30T07:45:14;98439.19;;;29.85;64.07
7668;BME280;3876;42.204;24.686;2023-08-30T07:47:41;98436.25;;;30.01;63.71
7668;BME280;3876;42.204;24.686;2023-08-30T07:50:08;98433.44;;;30.09;64.20
7668;BME280;3876;42.204;24.686;2023-08-30T07:52:35;98433.84;;;30.06;65.48
7668;BME280;3876;42.204;24.686;2023-08-30T07:55:03;98438.25;;;29.99;63.89
7668;BME280;3876;42.204;24.686;2023-08-30T07:57:31;98432.41;;;30.03;64.54
7668;BME280;3876;42.204;24.686;2023-08-30T07:59:58;98433.09;;;30.18;63.61
7668;BME280;3876;42.204;24.686;2023-08-30T08:02:26;98435.25;;;30.36;61.56
7668;BME280;3876;42.204;24.686;2023-08-30T08:04:54;98435.91;;;30.10;61.89
7668;BME280;3876;42.204;24.686;2023-08-30T08:07:21;98433.16;;;30.25;62.27
7668;BME280;3876;42.204;24.686;2023-08-30T08:09:47;98438.41;;;30.46;61.36
7668;BME280;3876;42.204;24.686;2023-08-30T08:12:14;98432.69;;;30.43;60.28
7668;BME280;3876;42.204;24.686;2023-08-30T08:14:41;98434.78;;;30.60;60.98
7668;BME280;3876;42.204;24.686;2023-08-30T08:17:09;98432.84;;;30.82;60.06
7668;BME280;3876;42.204;24.686;2023-08-30T08:19:38;98424.59;;;30.98;60.25
7668;BME280;3876;42.204;24.686;2023-08-30T08:22:05;98423.41;;;31.20;56.79
7668;BME280;3876;42.204;24.686;2023-08-30T08:24:32;98418.53;;;31.31;56.17
7668;BME280;3876;42.204;24.686;2023-08-30T08:26:59;98422.81;;;31.32;61.87
7668;BME280;3876;42.204;24.686;2023-08-30T08:29:26;98421.19;;;31.31;58.08
7668;BME280;3876;42.204;24.686;2023-08-30T08:31:54;98427.72;;;31.48;58.30
7668;BME280;3876;42.204;24.686;2023-08-30T08:34:20;98387.97;;;31.35;56.17
7668;BME280;3876;42.204;24.686;2023-08-30T08:36:49;98429.81;;;31.72;54.84
7668;BME280;3876;42.204;24.686;2023-08-30T08:39:16;98427.97;;;31.92;53.42
7668;BME280;3876;42.204;24.686;2023-08-30T08:41:44;98425.09;;;32.13;53.64
7668;BME280;3876;42.204;24.686;2023-08-30T08:44:12;98422.16;;;32.41;54.18
7668;BME280;3876;42.204;24.686;2023-08-30T08:46:41;98414.78;;;32.63;50.28
7668;BME280;3876;42.204;24.686;2023-08-30T08:49:11;98417.97;;;32.78;50.07
7668;BME280;3876;42.204;24.686;2023-08-30T08:51:39;98405.22;;;32.93;49.15
7668;BME280;3876;42.204;24.686;2023-08-30T08:54:10;98397.19;;;33.06;49.49
7668;BME280;3876;42.204;24.686;2023-08-30T08:56:38;98399.34;;;33.22;48.38
7668;BME280;3876;42.204;24.686;2023-08-30T08:59:06;98398.91;;;33.25;49.60
7668;BME280;3876;42.204;24.686;2023-08-30T09:01:35;98397.41;;;33.05;47.78
7668;BME280;3876;42.204;24.686;2023-08-30T09:04:05;98407.59;;;33.14;49.72
7668;BME280;3876;42.204;24.686;2023-08-30T09:06:34;98400.41;;;33.21;48.51
7668;BME280;3876;42.204;24.686;2023-08-30T09:09:01;98398.38;;;33.42;49.40
7668;BME280;3876;42.204;24.686;2023-08-30T09:11:34;98394.59;;;33.62;48.75
7668;BME280;3876;42.204;24.686;2023-08-30T09:14:01;98399.66;;;33.64;46.77
7668;BME280;3876;42.204;24.686;2023-08-30T09:16:28;98394.78;;;33.61;47.21
7668;BME280;3876;42.204;24.686;2023-08-30T09:18:59;98390.47;;;33.66;46.59
7668;BME280;3876;42.204;24.686;2023-08-30T09:21:26;98389.09;;;33.82;45.99
7668;BME280;3876;42.204;24.686;2023-08-30T09:23:57;98385.69;;;33.93;47.16
7668;BME280;3876;42.204;24.686;2023-08-30T09:26:25;98389.34;;;33.74;47.11
7668;BME280;3876;42.204;24.686;2023-08-30T09:28:55;98384.72;;;33.88;48.09
7668;BME280;3876;42.204;24.686;2023-08-30T09:31:22;98385.25;;;33.96;45.94
7668;BME280;3876;42.204;24.686;2023-08-30T09:33:48;98378.59;;;34.12;45.28
7668;BME280;3876;42.204;24.686;2023-08-30T09:36:15;98374.38;;;34.22;45.23
7668;BME280;3876;42.204;24.686;2023-08-30T09:38:48;98370.31;;;34.20;46.18
7668;BME280;3876;42.204;24.686;2023-08-30T09:41:16;98359.97;;;34.12;47.54
7668;BME280;3876;42.204;24.686;2023-08-30T09:43:42;98360.75;;;33.94;48.11
7668;BME280;3876;42.204;24.686;2023-08-30T09:46:11;98352.47;;;34.02;46.44
7668;BME280;3876;42.204;24.686;2023-08-30T09:48:38;98353.97;;;34.16;45.99
7668;BME280;3876;42.204;24.686;2023-08-30T09:51:07;98352.81;;;34.06;46.41
7668;BME280;3876;42.204;24.686;2023-08-30T09:53:42;98350.81;;;33.83;44.72
7668;BME280;3876;42.204;24.686;2023-08-30T09:56:11;98351.56;;;33.90;46.08
7668;BME280;3876;42.204;24.686;2023-08-30T09:58:40;98350.25;;;33.99;45.81
7668;BME280;3876;42.204;24.686;2023-08-30T10:01:07;98354.28;;;33.65;44.99
7668;BME280;3876;42.204;24.686;2023-08-30T10:03:36;98353.78;;;33.50;46.22
7668;BME280;3876;42.204;24.686;2023-08-30T10:06:03;98349.59;;;33.61;45.11
7668;BME280;3876;42.204;24.686;2023-08-30T10:08:31;98354.50;;;33.57;45.82
7668;BME280;3876;42.204;24.686;2023-08-30T10:10:58;98351.19;;;33.68;47.05
7668;BME280;3876;42.204;24.686;2023-08-30T10:13:25;98341.50;;;33.49;45.61
7668;BME280;3876;42.204;24.686;2023-08-30T10:15:59;98336.13;;;33.56;46.18
7668;BME280;3876;42.204;24.686;2023-08-30T10:18:27;98332.38;;;33.70;47.75
7668;BME280;3876;42.204;24.686;2023-08-30T10:20:59;98331.31;;;33.71;46.70
7668;BME280;3876;42.204;24.686;2023-08-30T10:23:28;98331.63;;;33.63;48.28
7668;BME280;3876;42.204;24.686;2023-08-30T10:25:55;98331.06;;;33.30;46.08
7668;BME280;3876;42.204;24.686;2023-08-30T10:28:23;98322.97;;;33.43;46.66
7668;BME280;3876;42.204;24.686;2023-08-30T10:30:51;98329.56;;;33.58;45.63
7668;BME280;3876;42.204;24.686;2023-08-30T10:33:18;98337.44;;;33.47;47.31
7668;BME280;3876;42.204;24.686;2023-08-30T10:35:51;98329.47;;;33.47;46.96
7668;BME280;3876;42.204;24.686;2023-08-30T10:38:28;98324.28;;;33.34;46.28
7668;BME280;3876;42.204;24.686;2023-08-30T10:40:55;98314.84;;;33.38;47.26
7668;BME280;3876;42.204;24.686;2023-08-30T10:43:34;98322.28;;;33.54;45.90
7668;BME280;3876;42.204;24.686;2023-08-30T10:46:02;98313.75;;;33.70;45.71
7668;BME280;3876;42.204;24.686;2023-08-30T10:48:38;98307.06;;;33.61;45.94
7668;BME280;3876;42.204;24.686;2023-08-30T10:51:19;98307.47;;;33.58;45.46
7668;BME280;3876;42.204;24.686;2023-08-30T10:53:57;98309.94;;;33.59;47.07
7668;BME280;3876;42.204;24.686;2023-08-30T10:56:28;98313.75;;;33.45;45.67
7668;BME280;3876;42.204;24.686;2023-08-30T10:58:56;98303.38;;;33.12;46.16
7668;BME280;3876;42.204;24.686;2023-08-30T11:01:23;98309.22;;;33.28;44.88
7668;BME280;3876;42.204;24.686;2023-08-30T11:03:50;98294.63;;;33.37;46.15
7668;BME280;3876;42.204;24.686;2023-08-30T11:06:18;98302.16;;;33.40;45.11
7668;BME280;3876;42.204;24.686;2023-08-30T11:08:47;98299.59;;;33.26;43.26
7668;BME280;3876;42.204;24.686;2023-08-30T11:11:16;98307.47;;;33.40;46.10
7668;BME280;3876;42.204;24.686;2023-08-30T11:13:44;98310.00;;;33.53;44.59
7668;BME280;3876;42.204;24.686;2023-08-30T11:16:11;98302.94;;;33.65;46.40
7668;BME280;3876;42.204;24.686;2023-08-30T11:18:38;98295.22;;;33.63;45.55
7668;BME280;3876;42.204;24.686;2023-08-30T11:21:07;98290.19;;;33.73;46.28
7668;BME280;3876;42.204;24.686;2023-08-30T11:23:34;98284.81;;;33.98;46.39
7668;BME280;3876;42.204;24.686;2023-08-30T11:26:01;98291.59;;;33.76;43.50
7668;BME280;3876;42.204;24.686;2023-08-30T11:28:31;98286.41;;;33.63;44.88
7668;BME280;3876;42.204;24.686;2023-08-30T11:30:58;98277.72;;;33.49;44.64
7668;BME280;3876;42.204;24.686;2023-08-30T11:33:25;98279.59;;;33.67;45.31
7668;BME280;3876;42.204;24.686;2023-08-30T11:35:52;98281.41;;;33.91;48.33
7668;BME280;3876;42.204;24.686;2023-08-30T11:38:19;98283.75;;;33.99;46.45
7668;BME280;3876;42.204;24.686;2023-08-30T11:40:49;98281.31;;;33.98;45.68
7668;BME280;3876;42.204;24.686;2023-08-30T11:43:16;98277.72;;;33.92;46.00
7668;BME280;3876;42.204;24.686;2023-08-30T11:45:45;98277.50;;;33.75;46.31
7668;BME280;3876;42.204;24.686;2023-08-30T11:48:12;98270.09;;;33.77;46.17
7668;BME280;3876;42.204;24.686;2023-08-30T11:50:39;98270.41;;;33.88;46.93
7668;BME280;3876;42.204;24.686;2023-08-30T11:53:07;98261.16;;;33.90;45.74
7668;BME280;3876;42.204;24.686;2023-08-30T11:55:34;98251.63;;;34.01;44.80
7668;BME280;3876;42.204;24.686;2023-08-30T11:58:03;98257.16;;;33.99;46.58
7668;BME280;3876;42.204;24.686;2023-08-30T12:00:33;98255.34;;;34.18;44.56
7668;BME280;3876;42.204;24.686;2023-08-30T12:03:02;98259.97;;;34.22;44.40
7668;BME280;3876;42.204;24.686;2023-08-30T12:05:29;98257.91;;;34.24;44.75
7668;BME280;3876;42.204;24.686;2023-08-30T12:08:00;98259.31;;;34.27;44.88
7668;BME280;3876;42.204;24.686;2023-08-30T12:10:30;98256.66;;;34.39;44.34
7668;BME280;3876;42.204;24.686;2023-08-30T12:12:57;98253.38;;;34.07;43.67
7668;BME280;3876;42.204;24.686;2023-08-30T12:15:24;98255.63;;;33.92;44.22
7668;BME280;3876;42.204;24.686;2023-08-30T12:17:54;98254.09;;;33.66;45.38
7668;BME280;3876;42.204;24.686;2023-08-30T12:20:22;98249.22;;;33.63;45.55
7668;BME280;3876;42.204;24.686;2023-08-30T12:22:51;98239.41;;;33.39;46.27
7668;BME280;3876;42.204;24.686;2023-08-30T12:25:19;98242.53;;;33.54;46.38
7668;BME280;3876;42.204;24.686;2023-08-30T12:27:47;98237.06;;;33.49;44.54
7668;BME280;3876;42.204;24.686;2023-08-30T12:30:14;98234.13;;;33.57;45.38
7668;BME280;3876;42.204;24.686;2023-08-30T12:32:42;98232.06;;;33.77;47.06
7668;BME280;3876;42.204;24.686;2023-08-30T12:35:09;98224.09;;;33.95;44.62
7668;BME280;3876;42.204;24.686;2023-08-30T12:37:40;98223.19;;;34.01;44.80
7668;BME280;3876;42.204;24.686;2023-08-30T12:40:07;98221.84;;;34.10;44.98
7668;BME280;3876;42.204;24.686;2023-08-30T12:42:37;98223.78;;;34.21;43.39
7668;BME280;3876;42.204;24.686;2023-08-30T12:45:05;98217.41;;;34.04;43.69
7668;BME280;3876;42.204;24.686;2023-08-30T12:47:33;98185.66;;;33.91;43.87
7668;BME280;3876;42.204;24.686;2023-08-30T12:50:00;98219.50;;;34.02;43.08
7668;BME280;3876;42.204;24.686;2023-08-30T12:52:27;98208.84;;;34.02;43.98
7668;BME280;3876;42.204;24.686;2023-08-30T12:54:56;98208.25;;;34.00;44.55
7668;BME280;3876;42.204;24.686;2023-08-30T12:57:22;98210.47;;;34.03;44.76
7668;BME280;3876;42.204;24.686;2023-08-30T12:59:49;98197.25;;;34.15;44.30
7668;BME280;3876;42.204;24.686;2023-08-30T13:02:16;98199.75;;;34.28;43.06
7668;BME280;3876;42.204;24.686;2023-08-30T13:04:43;98200.31;;;34.30;43.71
7668;BME280;3876;42.204;24.686;2023-08-30T13:07:10;98202.13;;;34.18;43.30
7668;BME280;3876;42.204;24.686;2023-08-30T13:09:38;98204.09;;;34.22;43.26
7668;BME280;3876;42.204;24.686;2023-08-30T13:12:07;98188.03;;;34.29;43.58
7668;BME280;3876;42.204;24.686;2023-08-30T13:14:34;98188.84;;;34.29;47.28